sensor_id;sensor_type;location;lat;lon;timestamp;P1;durP1;ratioP1;P2;durP2;ratioP2
24411;SDS011;12544;46.760;15.942;2022-12-18T00:01:40;255.00;;;37.20;;
24411;SDS011;12544;46.760;15.942;2022-12-18T00:04:06;157.10;;;30.25;;
24411;SDS011;12544;46.760;15.942;2022-12-18T00:06:39;113.55;;;27.60;;
24411;SDS011;12544;46.760;15.942;2022-12-18T00:12:14;140.13;;;29.05;;
24411;SDS011;12544;46.760;15.942;2022-12-18T00:14:40;242.32;;;34.72;;
24411;SDS011;12544;46.760;15.942;2022-12-18T00:17:05;265.73;;;33.17;;
24411;SDS011;12544;46.760;15.942;2022-12-18T00:19:31;148.75;;;28.33;;
24411;SDS011;12544;46.760;15.942;2022-12-18T00:21:57;115.45;;;26.55;;
24411;SDS011;12544;46.760;15.942;2022-12-18T00:24:23;75.45;;;25.70;;
24411;SDS011;12544;46.760;15.942;2022-12-18T00:26:48;46.58;;;24.75;;
24411;SDS011;12544;46.760;15.942;2022-12-18T00:29:14;265.90;;;32.38;;
24411;SDS011;12544;46.760;15.942;2022-12-18T00:31:40;40.25;;;22.42;;
24411;SDS011;12544;46.760;15.942;2022-12-18T00:34:08;156.32;;;27.85;;
24411;SDS011;12544;46.760;15.942;2022-12-18T00:36:36;115.03;;;24.00;;
24411;SDS011;12544;46.760;15.942;2022-12-18T00:39:03;246.02;;;32.08;;
24411;SDS011;12544;46.760;15.942;2022-12-18T00:41:29;134.52;;;25.38;;
24411;SDS011;12544;46.760;15.942;2022-12-18T00:44:23;105.82;;;23.77;;
24411;SDS011;12544;46.760;15.942;2022-12-18T00:46:49;108.10;;;25.48;;
24411;SDS011;12544;46.760;15.942;2022-12-18T00:49:16;31.92;;;19.73;;
24411;SDS011;12544;46.760;15.942;2022-12-18T00:51:42;34.45;;;21.60;;
24411;SDS011;12544;46.760;15.942;2022-12-18T00:54:08;57.20;;;22.15;;
24411;SDS011;12544;46.760;15.942;2022-12-18T00:56:35;79.72;;;23.05;;
24411;SDS011;12544;46.760;15.942;2022-12-18T00:59:03;114.00;;;26.30;;
24411;SDS011;12544;46.760;15.942;2022-12-18T01:01:29;47.47;;;23.83;;
24411;SDS011;12544;46.760;15.942;2022-12-18T01:03:54;46.15;;;22.35;;
24411;SDS011;12544;46.760;15.942;2022-12-18T01:06:21;73.75;;;26.33;;
24411;SDS011;12544;46.760;15.942;2022-12-18T01:08:47;63.75;;;24.92;;
24411;SDS011;12544;46.760;15.942;2022-12-18T01:11:14;85.90;;;25.65;;
24411;SDS011;12544;46.760;15.942;2022-12-18T01:13:42;59.08;;;23.80;;
24411;SDS011;12544;46.760;15.942;2022-12-18T01:16:15;50.40;;;24.08;;
24411;SDS011;12544;46.760;15.942;2022-12-18T01:18:41;77.43;;;23.52;;
24411;SDS011;12544;46.760;15.942;2022-12-18T01:21:08;98.45;;;25.83;;
24411;SDS011;12544;46.760;15.942;2022-12-18T01:23:35;42.17;;;23.20;;
24411;SDS011;12544;46.760;15.942;2022-12-18T01:26:05;51.85;;;23.33;;
24411;SDS011;12544;46.760;15.942;2022-12-18T01:28:35;60.28;;;24.92;;
24411;SDS011;12544;46.760;15.942;2022-12-18T01:33:49;75.38;;;25.27;;
24411;SDS011;12544;46.760;15.942;2022-12-18T01:36:16;51.83;;;23.05;;
24411;SDS011;12544;46.760;15.942;2022-12-18T01:38:46;41.72;;;23.13;;
24411;SDS011;12544;46.760;15.942;2022-12-18T01:41:14;57.95;;;22.98;;
24411;SDS011;12544;46.760;15.942;2022-12-18T01:43:51;46.67;;;23.75;;
24411;SDS011;12544;46.760;15.942;2022-12-18T01:46:28;74.60;;;27.10;;
24411;SDS011;12544;46.760;15.942;2022-12-18T01:48:55;49.73;;;23.83;;
24411;SDS011;12544;46.760;15.942;2022-12-18T01:51:22;44.55;;;22.70;;
24411;SDS011;12544;46.760;15.942;2022-12-18T01:53:48;72.30;;;27.60;;
24411;SDS011;12544;46.760;15.942;2022-12-18T01:56:16;49.17;;;24.50;;
24411;SDS011;12544;46.760;15.942;2022-12-18T02:01:27;106.40;;;28.33;;
24411;SDS011;12544;46.760;15.942;2022-12-18T02:03:55;79.38;;;25.42;;
24411;SDS011;12544;46.760;15.942;2022-12-18T02:06:24;132.70;;;31.00;;
24411;SDS011;12544;46.760;15.942;2022-12-18T02:09:09;61.88;;;25.77;;
24411;SDS011;12544;46.760;15.942;2022-12-18T02:22:36;97.05;;;27.27;;
24411;SDS011;12544;46.760;15.942;2022-12-18T02:28:13;41.53;;;22.05;;
24411;SDS011;12544;46.760;15.942;2022-12-18T02:30:41;57.08;;;27.17;;
24411;SDS011;12544;46.760;15.942;2022-12-18T02:33:08;61.63;;;24.60;;
24411;SDS011;12544;46.760;15.942;2022-12-18T02:35:35;47.70;;;25.60;;
24411;SDS011;12544;46.760;15.942;2022-12-18T02:38:02;73.85;;;26.13;;
24411;SDS011;12544;46.760;15.942;2022-12-18T02:40:30;63.90;;;25.83;;
24411;SDS011;12544;46.760;15.942;2022-12-18T02:43:02;71.75;;;25.38;;
24411;SDS011;12544;46.760;15.942;2022-12-18T02:45:58;82.47;;;25.33;;
24411;SDS011;12544;46.760;15.942;2022-12-18T02:48:26;47.90;;;23.33;;
24411;SDS011;12544;46.760;15.942;2022-12-18T02:53:57;87.57;;;27.50;;
24411;SDS011;12544;46.760;15.942;2022-12-18T02:59:33;96.22;;;27.20;;
24411;SDS011;12544;46.760;15.942;2022-12-18T03:04:57;52.35;;;23.10;;
24411;SDS011;12544;46.760;15.942;2022-12-18T03:07:38;59.92;;;25.98;;
24411;SDS011;12544;46.760;15.942;2022-12-18T03:10:16;64.45;;;25.05;;
24411;SDS011;12544;46.760;15.942;2022-12-18T03:12:47;92.47;;;25.60;;
24411;SDS011;12544;46.760;15.942;2022-12-18T03:15:19;52.93;;;24.90;;
24411;SDS011;12544;46.760;15.942;2022-12-18T03:17:51;130.80;;;29.52;;
24411;SDS011;12544;46.760;15.942;2022-12-18T03:20:21;87.38;;;27.80;;
24411;SDS011;12544;46.760;15.942;2022-12-18T03:22:51;160.95;;;28.85;;
24411;SDS011;12544;46.760;15.942;2022-12-18T03:25:22;68.00;;;24.20;;
24411;SDS011;12544;46.760;15.942;2022-12-18T03:27:51;56.70;;;24.45;;
24411;SDS011;12544;46.760;15.942;2022-12-18T03:30:19;92.22;;;25.85;;
24411;SDS011;12544;46.760;15.942;2022-12-18T03:32:52;59.30;;;22.13;;
24411;SDS011;12544;46.760;15.942;2022-12-18T03:35:25;111.22;;;27.73;;
24411;SDS011;12544;46.760;15.942;2022-12-18T03:37:54;80.32;;;26.33;;
24411;SDS011;12544;46.760;15.942;2022-12-18T03:40:25;83.68;;;26.77;;
24411;SDS011;12544;46.760;15.942;2022-12-18T03:42:59;54.80;;;23.65;;
24411;SDS011;12544;46.760;15.942;2022-12-18T03:45:37;75.80;;;25.48;;
24411;SDS011;12544;46.760;15.942;2022-12-18T03:48:17;133.35;;;27.08;;
24411;SDS011;12544;46.760;15.942;2022-12-18T03:50:55;75.95;;;25.10;;
24411;SDS011;12544;46.760;15.942;2022-12-18T03:56:08;52.58;;;23.75;;
24411;SDS011;12544;46.760;15.942;2022-12-18T03:58:37;49.13;;;23.00;;
24411;SDS011;12544;46.760;15.942;2022-12-18T04:01:04;59.20;;;25.55;;
24411;SDS011;12544;46.760;15.942;2022-12-18T04:03:38;50.03;;;24.00;;
24411;SDS011;12544;46.760;15.942;2022-12-18T04:08:46;71.93;;;27.40;;
24411;SDS011;12544;46.760;15.942;2022-12-18T04:11:12;54.70;;;24.70;;
24411;SDS011;12544;46.760;15.942;2022-12-18T04:13:38;51.17;;;24.13;;
24411;SDS011;12544;46.760;15.942;2022-12-18T04:16:04;89.78;;;25.67;;
24411;SDS011;12544;46.760;15.942;2022-12-18T04:18:30;66.07;;;26.30;;
24411;SDS011;12544;46.760;15.942;2022-12-18T04:20:56;76.03;;;25.15;;
24411;SDS011;12544;46.760;15.942;2022-12-18T04:23:22;125.25;;;26.70;;
24411;SDS011;12544;46.760;15.942;2022-12-18T04:25:47;138.27;;;28.30;;
24411;SDS011;12544;46.760;15.942;2022-12-18T04:28:13;59.55;;;23.27;;
24411;SDS011;12544;46.760;15.942;2022-12-18T04:30:39;92.80;;;25.77;;
24411;SDS011;12544;46.760;15.942;2022-12-18T04:33:08;84.97;;;25.67;;
24411;SDS011;12544;46.760;15.942;2022-12-18T04:35:35;96.05;;;24.45;;
24411;SDS011;12544;46.760;15.942;2022-12-18T04:40:54;70.38;;;22.50;;
24411;SDS011;12544;46.760;15.942;2022-12-18T04:43:20;86.65;;;23.35;;
24411;SDS011;12544;46.760;15.942;2022-12-18T04:45:46;70.10;;;22.27;;
24411;SDS011;12544;46.760;15.942;2022-12-18T04:48:11;45.83;;;21.60;;
24411;SDS011;12544;46.760;15.942;2022-12-18T04:50:37;47.35;;;22.13;;
24411;SDS011;12544;46.760;15.942;2022-12-18T04:53:02;61.70;;;23.77;;
24411;SDS011;12544;46.760;15.942;2022-12-18T04:55:45;64.72;;;23.45;;
24411;SDS011;12544;46.760;15.942;2022-12-18T04:58:11;65.03;;;24.75;;
24411;SDS011;12544;46.760;15.942;2022-12-18T05:00:37;70.40;;;24.13;;
24411;SDS011;12544;46.760;15.942;2022-12-18T05:03:02;56.63;;;24.63;;
24411;SDS011;12544;46.760;15.942;2022-12-18T05:05:28;78.68;;;25.60;;
24411;SDS011;12544;46.760;15.942;2022-12-18T05:07:53;52.28;;;22.65;;
24411;SDS011;12544;46.760;15.942;2022-12-18T05:10:19;54.20;;;24.55;;
24411;SDS011;12544;46.760;15.942;2022-12-18T05:12:45;52.70;;;23.42;;
24411;SDS011;12544;46.760;15.942;2022-12-18T05:15:26;52.63;;;23.00;;
24411;SDS011;12544;46.760;15.942;2022-12-18T05:17:56;53.58;;;23.80;;
24411;SDS011;12544;46.760;15.942;2022-12-18T05:20:23;49.92;;;23.13;;
24411;SDS011;12544;46.760;15.942;2022-12-18T05:22:48;59.78;;;24.02;;
24411;SDS011;12544;46.760;15.942;2022-12-18T05:25:16;58.80;;;24.52;;
24411;SDS011;12544;46.760;15.942;2022-12-18T05:27:41;55.63;;;23.90;;
24411;SDS011;12544;46.760;15.942;2022-12-18T05:30:07;49.78;;;23.45;;
24411;SDS011;12544;46.760;15.942;2022-12-18T05:32:34;57.47;;;21.00;;
24411;SDS011;12544;46.760;15.942;2022-12-18T05:35:00;51.08;;;22.13;;
24411;SDS011;12544;46.760;15.942;2022-12-18T05:37:26;54.10;;;22.33;;
24411;SDS011;12544;46.760;15.942;2022-12-18T05:39:51;65.03;;;23.50;;
24411;SDS011;12544;46.760;15.942;2022-12-18T05:42:17;50.53;;;21.88;;
24411;SDS011;12544;46.760;15.942;2022-12-18T05:44:43;59.90;;;23.75;;
24411;SDS011;12544;46.760;15.942;2022-12-18T05:47:09;63.30;;;23.73;;
24411;SDS011;12544;46.760;15.942;2022-12-18T05:49:35;59.47;;;24.60;;
24411;SDS011;12544;46.760;15.942;2022-12-18T05:52:00;58.50;;;22.50;;
24411;SDS011;12544;46.760;15.942;2022-12-18T05:54:27;62.75;;;23.35;;
24411;SDS011;12544;46.760;15.942;2022-12-18T05:56:53;48.75;;;20.55;;
24411;SDS011;12544;46.760;15.942;2022-12-18T05:59:19;47.83;;;20.88;;
24411;SDS011;12544;46.760;15.942;2022-12-18T06:01:45;53.83;;;22.15;;
24411;SDS011;12544;46.760;15.942;2022-12-18T06:04:11;45.08;;;21.48;;
24411;SDS011;12544;46.760;15.942;2022-12-18T06:06:37;50.60;;;20.50;;
24411;SDS011;12544;46.760;15.942;2022-12-18T06:09:03;56.30;;;22.15;;
24411;SDS011;12544;46.760;15.942;2022-12-18T06:11:33;53.38;;;21.52;;
24411;SDS011;12544;46.760;15.942;2022-12-18T06:14:00;60.22;;;22.73;;
24411;SDS011;12544;46.760;15.942;2022-12-18T06:16:26;54.65;;;23.67;;
24411;SDS011;12544;46.760;15.942;2022-12-18T06:18:53;50.85;;;21.35;;
24411;SDS011;12544;46.760;15.942;2022-12-18T06:21:26;52.72;;;23.30;;
24411;SDS011;12544;46.760;15.942;2022-12-18T06:23:52;48.30;;;22.42;;
24411;SDS011;12544;46.760;15.942;2022-12-18T06:26:18;49.45;;;20.40;;
24411;SDS011;12544;46.760;15.942;2022-12-18T06:28:44;49.50;;;21.50;;
24411;SDS011;12544;46.760;15.942;2022-12-18T06:31:10;58.25;;;23.90;;
24411;SDS011;12544;46.760;15.942;2022-12-18T06:33:36;55.65;;;23.17;;
24411;SDS011;12544;46.760;15.942;2022-12-18T06:36:05;55.40;;;21.65;;
24411;SDS011;12544;46.760;15.942;2022-12-18T06:38:33;56.42;;;23.38;;
24411;SDS011;12544;46.760;15.942;2022-12-18T06:41:00;61.70;;;23.75;;
24411;SDS011;12544;46.760;15.942;2022-12-18T06:43:30;54.67;;;23.10;;
24411;SDS011;12544;46.760;15.942;2022-12-18T06:46:00;57.70;;;22.05;;
24411;SDS011;12544;46.760;15.942;2022-12-18T06:48:26;58.78;;;22.98;;
24411;SDS011;12544;46.760;15.942;2022-12-18T06:50:52;53.35;;;22.15;;
24411;SDS011;12544;46.760;15.942;2022-12-18T06:53:17;59.28;;;22.65;;
24411;SDS011;12544;46.760;15.942;2022-12-18T06:55:43;50.97;;;20.77;;
24411;SDS011;12544;46.760;15.942;2022-12-18T06:58:08;55.78;;;23.27;;
24411;SDS011;12544;46.760;15.942;2022-12-18T07:00:34;51.75;;;22.15;;
24411;SDS011;12544;46.760;15.942;2022-12-18T07:03:00;55.20;;;22.85;;
24411;SDS011;12544;46.760;15.942;2022-12-18T07:05:25;63.08;;;24.15;;
24411;SDS011;12544;46.760;15.942;2022-12-18T07:07:51;61.47;;;26.58;;
24411;SDS011;12544;46.760;15.942;2022-12-18T07:10:17;60.42;;;24.35;;
24411;SDS011;12544;46.760;15.942;2022-12-18T07:12:43;57.25;;;23.65;;
24411;SDS011;12544;46.760;15.942;2022-12-18T07:15:08;59.28;;;23.58;;
24411;SDS011;12544;46.760;15.942;2022-12-18T07:17:34;68.95;;;23.42;;
24411;SDS011;12544;46.760;15.942;2022-12-18T07:20:00;52.55;;;22.70;;
24411;SDS011;12544;46.760;15.942;2022-12-18T07:22:26;59.75;;;23.55;;
24411;SDS011;12544;46.760;15.942;2022-12-18T07:24:52;59.90;;;23.05;;
24411;SDS011;12544;46.760;15.942;2022-12-18T07:27:17;61.97;;;28.20;;
24411;SDS011;12544;46.760;15.942;2022-12-18T07:29:44;64.18;;;24.58;;
24411;SDS011;12544;46.760;15.942;2022-12-18T07:32:10;58.22;;;23.38;;
24411;SDS011;12544;46.760;15.942;2022-12-18T07:34:36;67.18;;;22.98;;
24411;SDS011;12544;46.760;15.942;2022-12-18T07:37:01;61.55;;;21.75;;
24411;SDS011;12544;46.760;15.942;2022-12-18T07:39:27;58.15;;;23.40;;
24411;SDS011;12544;46.760;15.942;2022-12-18T07:41:52;59.05;;;23.08;;
24411;SDS011;12544;46.760;15.942;2022-12-18T07:44:37;62.95;;;24.67;;
24411;SDS011;12544;46.760;15.942;2022-12-18T07:47:02;54.53;;;21.58;;
24411;SDS011;12544;46.760;15.942;2022-12-18T07:49:28;59.40;;;23.33;;
24411;SDS011;12544;46.760;15.942;2022-12-18T07:51:57;57.15;;;23.13;;
24411;SDS011;12544;46.760;15.942;2022-12-18T07:54:23;69.32;;;28.02;;
24411;SDS011;12544;46.760;15.942;2022-12-18T07:56:50;65.10;;;28.10;;
24411;SDS011;12544;46.760;15.942;2022-12-18T07:59:16;69.82;;;26.40;;
24411;SDS011;12544;46.760;15.942;2022-12-18T08:01:42;65.05;;;24.23;;
24411;SDS011;12544;46.760;15.942;2022-12-18T08:04:07;56.72;;;23.20;;
24411;SDS011;12544;46.760;15.942;2022-12-18T08:06:33;54.58;;;22.20;;
24411;SDS011;12544;46.760;15.942;2022-12-18T08:08:58;52.50;;;22.58;;
24411;SDS011;12544;46.760;15.942;2022-12-18T08:11:25;63.75;;;22.58;;
24411;SDS011;12544;46.760;15.942;2022-12-18T08:13:52;55.78;;;22.67;;
24411;SDS011;12544;46.760;15.942;2022-12-18T08:16:18;54.85;;;23.30;;
24411;SDS011;12544;46.760;15.942;2022-12-18T08:18:44;65.20;;;22.75;;
24411;SDS011;12544;46.760;15.942;2022-12-18T08:21:11;57.55;;;23.55;;
24411;SDS011;12544;46.760;15.942;2022-12-18T08:23:46;60.75;;;25.20;;
24411;SDS011;12544;46.760;15.942;2022-12-18T08:26:12;63.13;;;25.85;;
24411;SDS011;12544;46.760;15.942;2022-12-18T08:28:38;62.83;;;24.80;;
24411;SDS011;12544;46.760;15.942;2022-12-18T08:31:04;63.50;;;24.35;;
24411;SDS011;12544;46.760;15.942;2022-12-18T08:33:29;70.65;;;25.92;;
24411;SDS011;12544;46.760;15.942;2022-12-18T08:35:55;69.70;;;26.77;;
24411;SDS011;12544;46.760;15.942;2022-12-18T08:38:22;70.40;;;24.98;;
24411;SDS011;12544;46.760;15.942;2022-12-18T08:41:06;77.85;;;26.13;;
24411;SDS011;12544;46.760;15.942;2022-12-18T08:43:33;78.80;;;25.67;;
24411;SDS011;12544;46.760;15.942;2022-12-18T08:46:18;69.82;;;24.88;;
24411;SDS011;12544;46.760;15.942;2022-12-18T08:48:45;64.03;;;24.58;;
24411;SDS011;12544;46.760;15.942;2022-12-18T08:51:11;54.65;;;23.00;;
24411;SDS011;12544;46.760;15.942;2022-12-18T08:53:37;67.60;;;24.70;;
24411;SDS011;12544;46.760;15.942;2022-12-18T08:58:51;62.88;;;23.75;;
24411;SDS011;12544;46.760;15.942;2022-12-18T09:01:18;61.30;;;23.77;;
24411;SDS011;12544;46.760;15.942;2022-12-18T09:03:44;64.70;;;24.63;;
24411;SDS011;12544;46.760;15.942;2022-12-18T09:06:12;69.28;;;26.38;;
24411;SDS011;12544;46.760;15.942;2022-12-18T09:08:39;62.78;;;23.35;;
24411;SDS011;12544;46.760;15.942;2022-12-18T09:11:09;65.18;;;25.17;;
24411;SDS011;12544;46.760;15.942;2022-12-18T09:13:40;56.63;;;23.52;;
24411;SDS011;12544;46.760;15.942;2022-12-18T09:16:05;63.50;;;25.17;;
24411;SDS011;12544;46.760;15.942;2022-12-18T09:18:31;66.18;;;24.30;;
24411;SDS011;12544;46.760;15.942;2022-12-18T09:20:57;63.08;;;24.50;;
24411;SDS011;12544;46.760;15.942;2022-12-18T09:23:22;64.88;;;24.63;;
24411;SDS011;12544;46.760;15.942;2022-12-18T09:25:48;63.72;;;24.00;;
24411;SDS011;12544;46.760;15.942;2022-12-18T09:28:15;69.63;;;26.00;;
24411;SDS011;12544;46.760;15.942;2022-12-18T09:30:48;58.67;;;24.17;;
24411;SDS011;12544;46.760;15.942;2022-12-18T09:33:15;75.28;;;26.70;;
24411;SDS011;12544;46.760;15.942;2022-12-18T09:35:42;66.70;;;25.23;;
24411;SDS011;12544;46.760;15.942;2022-12-18T09:38:16;68.18;;;26.38;;
24411;SDS011;12544;46.760;15.942;2022-12-18T09:45:51;63.30;;;26.25;;
24411;SDS011;12544;46.760;15.942;2022-12-18T09:48:23;67.75;;;26.15;;
24411;SDS011;12544;46.760;15.942;2022-12-18T09:50:55;67.32;;;24.95;;
24411;SDS011;12544;46.760;15.942;2022-12-18T09:53:26;60.95;;;26.83;;
24411;SDS011;12544;46.760;15.942;2022-12-18T09:55:56;76.93;;;27.10;;
24411;SDS011;12544;46.760;15.942;2022-12-18T10:01:14;68.85;;;24.65;;
24411;SDS011;12544;46.760;15.942;2022-12-18T10:03:45;74.55;;;26.58;;
24411;SDS011;12544;46.760;15.942;2022-12-18T10:06:23;73.68;;;27.60;;
24411;SDS011;12544;46.760;15.942;2022-12-18T10:20:16;81.50;;;29.35;;
24411;SDS011;12544;46.760;15.942;2022-12-18T10:22:57;81.18;;;32.83;;
24411;SDS011;12544;46.760;15.942;2022-12-18T10:25:45;83.97;;;30.33;;
24411;SDS011;12544;46.760;15.942;2022-12-18T10:28:24;90.85;;;34.92;;
24411;SDS011;12544;46.760;15.942;2022-12-18T10:30:51;91.10;;;36.00;;
24411;SDS011;12544;46.760;15.942;2022-12-18T10:33:18;90.68;;;33.58;;
24411;SDS011;12544;46.760;15.942;2022-12-18T10:35:48;86.97;;;35.40;;
24411;SDS011;12544;46.760;15.942;2022-12-18T10:40:52;92.47;;;36.85;;
24411;SDS011;12544;46.760;15.942;2022-12-18T10:46:02;80.00;;;35.38;;
24411;SDS011;12544;46.760;15.942;2022-12-18T10:51:18;82.93;;;35.30;;
24411;SDS011;12544;46.760;15.942;2022-12-18T10:56:32;75.10;;;33.00;;
24411;SDS011;12544;46.760;15.942;2022-12-18T10:59:02;72.75;;;32.55;;
24411;SDS011;12544;46.760;15.942;2022-12-18T11:02:07;75.97;;;32.45;;
24411;SDS011;12544;46.760;15.942;2022-12-18T11:07:03;76.32;;;34.53;;
24411;SDS011;12544;46.760;15.942;2022-12-18T11:09:34;79.20;;;36.58;;
24411;SDS011;12544;46.760;15.942;2022-12-18T11:12:04;74.35;;;33.33;;
24411;SDS011;12544;46.760;15.942;2022-12-18T11:14:50;78.25;;;34.13;;
24411;SDS011;12544;46.760;15.942;2022-12-18T11:17:24;76.20;;;34.05;;
24411;SDS011;12544;46.760;15.942;2022-12-18T11:19:56;87.00;;;34.90;;
24411;SDS011;12544;46.760;15.942;2022-12-18T11:22:42;84.30;;;35.35;;
24411;SDS011;12544;46.760;15.942;2022-12-18T11:27:37;80.78;;;34.78;;
24411;SDS011;12544;46.760;15.942;2022-12-18T11:30:10;79.47;;;33.80;;
24411;SDS011;12544;46.760;15.942;2022-12-18T11:32:55;81.55;;;33.47;;
24411;SDS011;12544;46.760;15.942;2022-12-18T11:38:14;88.22;;;35.80;;
24411;SDS011;12544;46.760;15.942;2022-12-18T11:40:58;83.60;;;35.80;;
24411;SDS011;12544;46.760;15.942;2022-12-18T11:43:34;80.25;;;34.90;;
24411;SDS011;12544;46.760;15.942;2022-12-18T11:51:55;84.75;;;36.15;;
24411;SDS011;12544;46.760;15.942;2022-12-18T11:54:39;78.97;;;37.47;;
24411;SDS011;12544;46.760;15.942;2022-12-18T12:02:42;81.75;;;36.35;;
24411;SDS011;12544;46.760;15.942;2022-12-18T12:08:39;81.38;;;36.55;;
24411;SDS011;12544;46.760;15.942;2022-12-18T12:11:32;85.55;;;35.85;;
24411;SDS011;12544;46.760;15.942;2022-12-18T12:14:22;80.82;;;36.00;;
24411;SDS011;12544;46.760;15.942;2022-12-18T12:17:01;83.10;;;36.90;;
24411;SDS011;12544;46.760;15.942;2022-12-18T12:19:51;79.57;;;36.80;;
24411;SDS011;12544;46.760;15.942;2022-12-18T12:25:56;75.25;;;34.72;;
24411;SDS011;12544;46.760;15.942;2022-12-18T12:34:06;75.72;;;36.33;;
24411;SDS011;12544;46.760;15.942;2022-12-18T12:36:46;81.35;;;34.63;;
24411;SDS011;12544;46.760;15.942;2022-12-18T12:39:31;69.93;;;34.08;;
24411;SDS011;12544;46.760;15.942;2022-12-18T12:42:01;70.45;;;34.97;;
24411;SDS011;12544;46.760;15.942;2022-12-18T12:47:39;71.30;;;34.83;;
24411;SDS011;12544;46.760;15.942;2022-12-18T12:50:12;69.95;;;32.33;;
24411;SDS011;12544;46.760;15.942;2022-12-18T12:52:44;77.32;;;33.85;;
24411;SDS011;12544;46.760;15.942;2022-12-18T12:55:16;77.82;;;35.90;;
24411;SDS011;12544;46.760;15.942;2022-12-18T13:00:36;73.72;;;33.70;;
24411;SDS011;12544;46.760;15.942;2022-12-18T13:03:42;73.82;;;35.30;;
24411;SDS011;12544;46.760;15.942;2022-12-18T13:09:19;85.03;;;39.20;;
24411;SDS011;12544;46.760;15.942;2022-12-18T13:11:45;73.32;;;34.83;;
24411;SDS011;12544;46.760;15.942;2022-12-18T13:19:39;73.40;;;34.00;;
24411;SDS011;12544;46.760;15.942;2022-12-18T13:22:12;71.43;;;34.33;;
24411;SDS011;12544;46.760;15.942;2022-12-18T13:24:53;70.22;;;32.60;;
24411;SDS011;12544;46.760;15.942;2022-12-18T13:30:36;71.68;;;36.47;;
24411;SDS011;12544;46.760;15.942;2022-12-18T13:35:39;74.75;;;34.92;;
24411;SDS011;12544;46.760;15.942;2022-12-18T13:40:58;75.90;;;34.60;;
24411;SDS011;12544;46.760;15.942;2022-12-18T13:48:49;70.10;;;32.95;;
24411;SDS011;12544;46.760;15.942;2022-12-18T13:51:17;83.13;;;37.25;;
24411;SDS011;12544;46.760;15.942;2022-12-18T13:53:56;83.05;;;37.78;;
24411;SDS011;12544;46.760;15.942;2022-12-18T13:56:29;67.65;;;30.67;;
24411;SDS011;12544;46.760;15.942;2022-12-18T14:04:19;77.40;;;33.65;;
24411;SDS011;12544;46.760;15.942;2022-12-18T14:06:49;69.90;;;34.50;;
24411;SDS011;12544;46.760;15.942;2022-12-18T14:09:42;67.35;;;31.02;;
24411;SDS011;12544;46.760;15.942;2022-12-18T14:15:01;68.40;;;31.73;;
24411;SDS011;12544;46.760;15.942;2022-12-18T14:17:27;67.25;;;32.30;;
24411;SDS011;12544;46.760;15.942;2022-12-18T14:19:53;64.68;;;32.58;;
24411;SDS011;12544;46.760;15.942;2022-12-18T14:22:32;68.45;;;31.98;;
24411;SDS011;12544;46.760;15.942;2022-12-18T14:27:37;68.43;;;32.63;;
24411;SDS011;12544;46.760;15.942;2022-12-18T14:35:32;67.13;;;33.00;;
24411;SDS011;12544;46.760;15.942;2022-12-18T14:38:17;66.78;;;34.08;;
24411;SDS011;12544;46.760;15.942;2022-12-18T14:41:01;71.07;;;36.95;;
24411;SDS011;12544;46.760;15.942;2022-12-18T14:43:35;72.00;;;33.08;;
24411;SDS011;12544;46.760;15.942;2022-12-18T14:46:02;70.25;;;32.67;;
24411;SDS011;12544;46.760;15.942;2022-12-18T14:51:06;69.45;;;32.83;;
24411;SDS011;12544;46.760;15.942;2022-12-18T14:56:45;65.60;;;31.33;;
24411;SDS011;12544;46.760;15.942;2022-12-18T14:59:14;72.38;;;34.15;;
24411;SDS011;12544;46.760;15.942;2022-12-18T15:04:28;80.50;;;38.58;;
24411;SDS011;12544;46.760;15.942;2022-12-18T15:07:04;65.57;;;32.83;;
24411;SDS011;12544;46.760;15.942;2022-12-18T15:09:31;63.25;;;32.05;;
24411;SDS011;12544;46.760;15.942;2022-12-18T15:11:57;66.80;;;32.33;;
24411;SDS011;12544;46.760;15.942;2022-12-18T15:14:40;69.18;;;33.90;;
24411;SDS011;12544;46.760;15.942;2022-12-18T15:17:17;47.93;;;24.97;;
24411;SDS011;12544;46.760;15.942;2022-12-18T15:19:50;67.65;;;32.75;;
24411;SDS011;12544;46.760;15.942;2022-12-18T15:22:21;67.95;;;33.05;;
24411;SDS011;12544;46.760;15.942;2022-12-18T15:24:53;69.13;;;33.58;;
24411;SDS011;12544;46.760;15.942;2022-12-18T15:27:21;69.55;;;32.08;;
24411;SDS011;12544;46.760;15.942;2022-12-18T15:32:33;68.93;;;33.88;;
24411;SDS011;12544;46.760;15.942;2022-12-18T15:37:49;68.63;;;33.97;;
24411;SDS011;12544;46.760;15.942;2022-12-18T15:40:19;75.43;;;34.70;;
24411;SDS011;12544;46.760;15.942;2022-12-18T15:42:47;75.73;;;35.07;;
24411;SDS011;12544;46.760;15.942;2022-12-18T15:45:33;67.80;;;35.08;;
24411;SDS011;12544;46.760;15.942;2022-12-18T15:47:59;71.80;;;34.17;;
24411;SDS011;12544;46.760;15.942;2022-12-18T15:50:24;69.40;;;33.90;;
24411;SDS011;12544;46.760;15.942;2022-12-18T15:52:52;65.18;;;33.55;;
24411;SDS011;12544;46.760;15.942;2022-12-18T15:55:21;73.78;;;35.72;;
24411;SDS011;12544;46.760;15.942;2022-12-18T15:58:08;71.88;;;34.65;;
24411;SDS011;12544;46.760;15.942;2022-12-18T16:00:34;67.10;;;33.03;;
24411;SDS011;12544;46.760;15.942;2022-12-18T16:03:02;67.90;;;33.88;;
24411;SDS011;12544;46.760;15.942;2022-12-18T16:05:28;70.53;;;34.10;;
24411;SDS011;12544;46.760;15.942;2022-12-18T16:07:55;67.55;;;32.42;;
24411;SDS011;12544;46.760;15.942;2022-12-18T16:10:21;65.18;;;33.03;;
24411;SDS011;12544;46.760;15.942;2022-12-18T16:12:48;69.00;;;33.33;;
24411;SDS011;12544;46.760;15.942;2022-12-18T16:15:14;61.70;;;32.42;;
24411;SDS011;12544;46.760;15.942;2022-12-18T16:17:41;70.05;;;32.50;;
24411;SDS011;12544;46.760;15.942;2022-12-18T16:20:26;67.22;;;33.78;;
24411;SDS011;12544;46.760;15.942;2022-12-18T16:22:51;66.32;;;32.10;;
24411;SDS011;12544;46.760;15.942;2022-12-18T16:25:26;63.50;;;31.35;;
24411;SDS011;12544;46.760;15.942;2022-12-18T16:27:53;67.50;;;33.70;;
24411;SDS011;12544;46.760;15.942;2022-12-18T16:30:21;72.28;;;34.95;;
24411;SDS011;12544;46.760;15.942;2022-12-18T16:32:48;64.35;;;32.55;;
24411;SDS011;12544;46.760;15.942;2022-12-18T16:35:15;68.00;;;34.28;;
24411;SDS011;12544;46.760;15.942;2022-12-18T16:37:41;66.75;;;32.80;;
24411;SDS011;12544;46.760;15.942;2022-12-18T16:40:09;59.70;;;32.17;;
24411;SDS011;12544;46.760;15.942;2022-12-18T16:42:37;64.57;;;32.45;;
24411;SDS011;12544;46.760;15.942;2022-12-18T16:45:04;67.30;;;33.80;;
24411;SDS011;12544;46.760;15.942;2022-12-18T16:47:31;57.00;;;29.52;;
24411;SDS011;12544;46.760;15.942;2022-12-18T16:50:00;67.13;;;32.30;;
24411;SDS011;12544;46.760;15.942;2022-12-18T16:52:26;62.30;;;33.70;;
24411;SDS011;12544;46.760;15.942;2022-12-18T16:54:51;63.78;;;32.95;;
24411;SDS011;12544;46.760;15.942;2022-12-18T16:57:18;62.40;;;30.90;;
24411;SDS011;12544;46.760;15.942;2022-12-18T16:59:45;63.42;;;31.05;;
24411;SDS011;12544;46.760;15.942;2022-12-18T17:02:13;66.30;;;35.40;;
24411;SDS011;12544;46.760;15.942;2022-12-18T17:04:43;62.15;;;32.55;;
24411;SDS011;12544;46.760;15.942;2022-12-18T17:07:11;64.05;;;32.60;;